Date,TemperatureHighF,TemperatureAvgF,TemperatureLowF,DewpointHighF,DewpointAvgF,DewpointLowF,HumidityHigh,HumidityAvg,HumidityLow,PressureMaxIn,PressureMinIn,WindSpeedMaxMPH,WindSpeedAvgMPH,GustSpeedMaxMPH,PrecipitationSumIn
2013-1-1,50.7,43.9,34.9,39.2,33.4,24.2,78,67,55,29.95,29.82,7,0,7,0.00
2013-1-2,43.5,38.8,34.9,34.0,30.4,23.7,83,72,50,30.14,29.90,6,0,6,0.00
2013-1-3,42.1,33.8,25.9,26.4,22.7,18.7,75,64,50,30.16,30.06,8,0,8,0.00
2013-1-4,48.6,38.2,28.0,26.3,21.9,18.3,67,52,40,30.15,30.05,12,1,12,0.00
2013-1-5,52.3,39.6,28.0,32.1,23.0,17.5,72,53,35,30.30,30.10,7,0,7,0.02
2013-1-6,51.6,41.1,28.9,36.1,30.4,24.7,85,67,48,30.12,29.97,8,0,8,0.00
2013-1-7,48.4,39.6,25.3,31.0,26.8,20.6,83,61,47,30.37,30.08,7,0,7,0.00
2013-1-8,55.2,35.0,20.1,37.9,26.8,16.5,87,74,50,30.35,30.26,6,0,6,0.00
2013-1-9,63.1,45.7,26.4,49.9,37.3,22.7,89,74,47,30.32,30.20,12,0,12,0.00
2013-1-10,62.1,46.6,31.6,36.7,30.6,23.3,77,56,37,30.50,30.32,10,0,10,0.00
2013-1-11,44.8,41.1,34.5,41.8,36.7,28.8,91,84,77,30.39,30.02,4,0,4,0.02
2013-1-12,67.3,49.3,35.2,55.9,44.4,33.1,93,84,66,30.09,30.02,2,0,2,0.00
2013-1-13,69.4,57.9,48.0,61.0,53.2,45.3,93,85,71,30.06,29.92,4,0,4,0.00
2013-1-14,64.4,56.8,43.3,59.8,51.9,40.3,91,84,73,30.20,29.92,10,1,10,0.06
2013-1-15,43.2,39.3,37.4,40.5,37.1,35.1,93,92,89,30.25,30.05,7,0,7,1.00
2013-1-16,46.9,40.9,36.3,44.5,38.9,34.4,94,93,91,30.06,29.82,7,0,7,0.25
2013-1-17,49.3,41.3,33.3,46.1,38.7,31.1,93,91,73,30.06,29.89,10,0,10,0.61
2013-1-18,43.9,34.4,26.2,32.5,26.0,20.2,93,74,43,30.40,30.04,8,1,8,0.08
2013-1-19,56.5,40.1,24.6,37.4,29.3,21.6,88,67,47,30.35,29.96,7,1,7,0.00
2013-1-20,58.8,47.1,31.3,33.7,27.3,15.6,71,48,31,30.00,29.82,17,3,17,0.00
2013-1-21,55.0,38.0,25.0,27.7,19.7,8.5,79,50,31,30.01,29.73,18,2,18,0.00
2013-1-22,31.6,23.3,16.5,9.4,0.7,-1.2,48,37,30,30.19,29.89,13,2,13,0.00
2013-1-23,33.4,24.8,11.3,14.9,5.6,0.0,68,45,30,30.25,30.00,7,1,7,0.00
2013-1-24,29.8,23.4,14.4,17.4,8.1,2.5,83,54,37,30.45,30.00,17,3,17,0.00
2013-1-25,24.4,20.5,11.5,17.7,12.6,3.2,81,72,53,30.45,29.96,8,0,8,0.00
2013-1-26,39.7,30.0,16.0,28.1,22.0,12.2,85,72,57,30.35,29.97,7,0,7,0.00
2013-1-27,37.6,30.4,15.6,26.5,22.4,11.6,85,72,63,30.51,30.34,7,1,7,0.00
2013-1-28,50.0,40.8,32.5,43.0,34.9,25.8,89,80,70,30.38,30.01,7,0,7,0.14
2013-1-29,75.7,59.3,38.5,59.1,49.3,36.0,92,71,53,30.06,29.92,4,0,4,0.00
2013-1-30,67.8,63.3,56.5,63.1,58.3,50.9,94,84,73,29.91,29.23,13,2,13,2.12
2013-1-31,58.8,41.5,31.3,56.8,26.9,16.3,93,57,44,29.85,29.23,14,3,14,0.06
2013-2-1,34.5,26.6,19.6,22.1,7.7,3.3,63,45,36,30.30,29.79,18,4,18,0.00
2013-2-2,35.4,24.9,14.5,23.8,14.7,3.6,84,66,45,30.29,29.91,7,0,7,0.00
2013-2-3,41.9,32.2,26.2,29.7,23.2,15.9,87,71,52,29.91,29.75,14,2,14,0.00
2013-2-4,38.8,31.4,21.0,22.7,18.2,12.2,73,58,50,30.03,29.82,8,1,8,0.00
2013-2-5,58.1,45.5,30.7,38.7,32.2,25.0,82,61,47,29.85,29.77,15,1,15,0.00
2013-2-6,55.8,42.9,30.0,32.9,28.1,22.2,84,58,37,30.26,29.84,9,1,9,0.00
2013-2-7,40.3,37.0,28.8,29.0,26.5,21.8,79,66,60,30.33,30.08,7,1,7,0.00
2013-2-8,55.2,40.7,33.1,43.2,31.9,22.7,90,72,52,30.08,29.69,19,2,19,0.12
2013-2-9,50.2,37.5,23.9,22.7,17.8,14.9,69,46,29,30.30,29.85,17,4,17,0.00
2013-2-10,46.2,32.5,17.4,29.6,20.0,12.7,84,62,39,30.41,30.13,8,1,8,0.00
2013-2-11,59.5,49.2,37.9,50.2,41.0,25.0,89,76,31,30.14,29.72,13,1,13,0.02
2013-2-12,62.6,51.4,42.6,29.7,26.4,23.6,58,38,27,29.92,29.78,22,3,22,0.00
2013-2-13,45.3,39.7,33.4,34.8,31.0,26.8,88,72,56,29.87,29.58,9,1,9,0.00
2013-2-14,53.2,38.3,28.0,35.4,28.0,23.1,90,69,40,29.96,29.74,6,0,6,0.00
2013-2-15,61.9,41.5,23.9,40.7,31.0,20.1,87,69,42,29.97,29.81,11,2,11,0.00
2013-2-16,41.7,37.0,29.5,33.2,25.4,14.4,77,63,52,29.92,29.76,9,2,9,0.00
2013-2-17,32.7,26.6,20.3,14.4,7.3,4.4,56,44,34,30.15,29.81,13,3,13,0.00
2013-2-18,49.5,32.3,12.0,24.4,15.8,5.5,77,53,34,30.28,30.06,7,1,7,0.00
2013-2-19,49.3,42.2,37.6,41.3,31.1,19.3,86,66,43,30.05,29.68,13,3,13,0.16
2013-2-20,46.0,36.6,28.8,19.9,15.9,12.8,55,43,32,30.07,29.82,16,3,16,0.00
2013-2-21,49.1,35.9,23.5,21.8,17.3,12.2,66,47,34,30.24,30.04,11,2,11,0.00
2013-2-22,38.8,34.8,31.8,28.0,24.0,18.0,75,65,50,30.28,30.09,8,1,8,0.02
2013-2-23,55.6,42.8,33.6,43.5,36.4,27.7,88,79,64,30.10,29.75,5,0,5,0.00
2013-2-24,58.6,42.8,31.6,45.0,30.0,21.7,92,65,31,30.02,29.74,14,1,14,0.00
2013-2-25,45.3,35.2,25.3,23.7,20.0,16.3,75,55,41,30.16,30.02,10,1,10,0.00
2013-2-26,42.1,33.1,24.4,39.9,28.8,17.9,92,84,74,30.14,29.54,10,1,10,0.78
2013-2-27,55.8,44.3,32.9,45.3,35.3,30.3,93,73,50,29.65,29.50,12,2,12,0.00
2013-2-28,47.1,41.8,37.8,32.7,28.2,26.0,69,59,47,29.72,29.59,8,2,8,0.00
2013-3-1,43.5,39.0,34.5,31.2,26.7,23.3,78,62,53,29.84,29.70,8,2,8,0.00
2013-3-2,39.6,35.6,33.1,24.9,21.4,18.0,62,56,51,29.84,29.75,10,2,10,0.00
2013-3-3,46.0,35.3,28.9,23.0,17.7,13.1,57,49,38,29.88,29.74,17,3,17,0.00
2013-3-4,52.2,36.2,26.8,19.5,14.7,11.4,64,43,26,29.99,29.87,14,3,14,0.00
2013-3-5,49.3,38.2,27.5,33.6,26.7,16.7,87,64,49,30.00,29.66,10,0,10,0.14
2013-3-6,40.8,36.9,32.9,34.7,32.0,29.6,91,83,69,29.97,29.56,24,3,24,0.41
2013-3-7,48.9,41.8,38.3,30.7,27.8,24.0,69,58,46,30.14,29.95,14,3,14,0.00
2013-3-8,49.1,41.6,35.8,30.7,27.1,24.0,67,57,46,30.23,30.10,13,4,13,0.00
2013-3-9,58.8,43.4,29.8,30.9,26.4,23.1,79,54,30,30.28,30.18,10,2,10,0.00
2013-3-10,67.8,44.5,25.5,39.2,29.1,21.9,87,60,30,30.25,30.10,9,1,9,0.00
2013-3-11,60.6,50.6,38.8,50.9,38.2,27.7,80,63,43,30.14,29.82,8,0,8,0.00
2013-3-12,65.7,56.4,43.0,56.6,45.9,29.8,93,70,40,29.90,29.66,12,2,12,1.39
2013-3-13,50.5,41.5,31.8,32.1,25.4,15.5,77,54,39,30.04,29.86,16,3,16,0.00
2013-3-14,52.7,39.7,30.7,23.3,17.7,13.3,52,42,28,30.11,29.99,14,3,14,0.00
2013-3-15,62.4,44.4,25.5,38.0,27.1,15.9,75,52,40,30.06,29.74,10,1,10,0.00
2013-3-16,70.5,49.2,35.2,54.7,43.0,29.8,90,80,56,29.81,29.53,11,1,11,0.18
2013-3-17,48.7,39.8,33.6,43.4,36.3,30.9,90,87,82,30.18,29.81,8,1,9,0.06
2013-3-18,34.9,33.7,33.1,32.7,31.4,30.7,93,91,90,30.20,29.81,5,0,5,0.23
2013-3-19,62.6,46.3,33.4,47.5,28.2,10.1,94,59,20,29.92,29.68,22,4,22,0.00
2013-3-20,55.6,43.6,30.0,23.7,16.5,9.7,61,34,24,29.97,29.70,13,2,13,0.00
2013-3-21,40.3,34.4,27.7,27.6,16.4,9.6,71,49,35,29.87,29.70,12,3,12,0.00
2013-3-22,53.4,37.5,22.8,24.4,16.6,9.8,61,44,29,29.93,29.81,10,1,10,0.00
2013-3-23,59.9,43.5,25.0,29.2,23.4,16.9,72,47,30,29.98,29.82,8,1,8,0.00
2013-3-24,39.7,34.5,30.7,29.8,26.2,21.7,89,73,52,29.90,29.56,10,1,10,0.00
2013-3-25,45.1,36.4,30.4,35.3,30.6,25.1,91,80,60,29.66,29.47,7,0,7,0.39
2013-3-26,49.3,40.8,32.4,33.0,27.7,24.7,78,60,47,29.99,29.66,13,2,13,0.00
2013-3-27,50.7,42.0,34.7,29.8,26.0,22.8,69,54,39,30.12,29.99,12,3,15,0.00
2013-3-28,53.4,43.1,33.6,30.3,25.6,21.6,67,51,38,30.19,30.06,11,3,11,0.00
2013-3-29,59.5,45.1,29.1,36.9,28.7,24.0,82,56,33,30.22,30.06,10,1,10,0.00
2013-3-30,65.5,45.9,26.4,39.2,29.8,22.2,85,58,31,30.18,30.00,8,1,8,0.00
2013-3-31,56.5,45.7,38.3,50.5,40.0,30.7,90,81,68,30.02,29.70,5,0,5,0.06
2013-4-1,64.8,49.8,37.6,50.2,38.5,24.4,92,68,46,29.94,29.73,14,2,14,0.00
2013-4-2,55.6,41.7,25.7,30.3,21.2,15.7,80,48,25,30.10,29.94,12,2,12,0.00
2013-4-3,58.8,42.8,23.9,24.1,18.6,13.9,75,41,22,30.29,30.11,13,2,13,0.00
2013-4-4,49.3,35.1,26.2,32.1,21.8,14.4,88,61,35,30.35,29.99,7,0,7,0.22
2013-4-5,67.5,49.5,35.2,44.5,35.9,29.7,91,64,31,29.97,29.79,12,1,12,0.14
2013-4-6,63.0,50.8,38.5,32.3,25.6,18.9,59,39,22,30.23,29.97,10,2,10,0.00
2013-4-7,74.5,57.3,40.6,48.6,39.3,28.5,68,52,39,30.18,29.94,12,2,12,0.00
2013-4-8,82.9,66.6,46.2,54.2,47.8,39.8,81,53,34,30.03,29.90,7,0,7,0.00
2013-4-9,88.0,73.2,55.2,60.5,54.4,48.1,79,54,37,30.06,29.92,7,0,7,0.00
2013-4-10,93.0,77.9,61.0,64.2,56.5,51.2,71,49,34,29.96,29.78,8,0,8,0.00
2013-4-11,86.5,74.3,57.9,64.5,57.8,51.8,81,58,41,29.84,29.68,14,0,14,0.00
2013-4-12,82.6,71.6,61.9,68.7,57.0,40.1,91,63,39,29.68,29.52,12,1,12,0.69
2013-4-13,75.6,62.1,46.2,46.5,38.4,31.7,69,43,26,29.91,29.68,12,1,12,0.00
2013-4-14,79.5,62.0,39.4,48.8,40.4,32.9,80,48,31,30.03,29.91,10,1,10,0.00
2013-4-15,62.4,56.6,52.0,55.3,51.1,42.9,92,83,49,30.20,30.02,7,0,7,0.37
2013-4-16,77.2,62.6,54.1,65.6,57.2,52.0,93,84,63,30.24,30.08,6,0,6,0.04
2013-4-17,86.7,71.1,58.8,65.6,60.0,55.3,89,70,45,30.15,30.03,0,0,0,0.02
2013-4-18,79.5,66.0,58.8,68.0,59.0,55.7,91,79,56,30.14,29.92,3,0,3,0.06
2013-4-19,73.8,66.2,56.5,66.2,60.6,46.8,92,82,70,29.93,29.58,9,1,9,0.63
2013-4-20,65.5,54.2,43.5,44.7,33.9,27.1,68,47,29,30.24,29.73,13,2,13,0.00
2013-4-21,57.6,47.5,34.2,35.6,31.6,27.9,83,55,42,30.49,30.24,10,2,10,0.00
2013-4-22,60.4,46.5,29.8,38.3,33.0,26.5,88,62,39,30.48,30.26,13,2,13,0.00
2013-4-23,70.7,56.3,46.8,50.2,43.2,37.5,83,63,47,30.29,30.03,8,1,8,0.00
2013-4-24,80.4,57.8,37.8,61.5,48.6,35.1,90,75,45,30.06,29.79,8,1,8,0.02
2013-4-25,71.2,56.7,43.9,51.8,38.1,31.9,71,51,29,30.23,29.93,12,2,12,0.00
2013-4-26,70.9,54.6,35.2,45.1,37.3,29.4,84,55,35,30.38,30.23,8,1,8,0.00
2013-4-27,74.8,58.8,42.8,51.0,45.0,38.4,87,63,41,30.33,30.18,10,1,10,0.00
2013-4-28,58.8,54.5,50.4,53.0,49.0,46.1,87,82,74,30.20,30.11,7,0,7,0.04
2013-4-29,68.7,63.1,57.7,59.5,56.3,53.7,87,79,69,30.00,29.92,5,0,5,0.14
2013-4-30,65.5,58.0,53.2,58.1,53.3,50.1,91,85,74,30.21,30.00,12,0,12,0.02
2013-5-1,72.9,60.4,50.9,56.3,47.3,39.3,92,66,33,30.33,30.20,10,1,10,0.02
2013-5-2,71.4,59.7,47.3,49.1,44.9,40.8,82,59,39,30.34,30.23,10,2,10,0.00
2013-5-3,67.3,53.3,37.9,53.6,44.1,35.0,90,73,51,30.30,30.17,9,1,9,0.00
2013-5-4,64.2,52.9,41.2,51.1,44.2,37.0,85,73,61,30.25,30.08,14,2,14,0.00
2013-5-5,64.4,52.8,39.4,48.2,42.9,35.2,85,70,53,30.15,30.03,12,2,12,0.00
2013-5-6,59.4,52.6,48.0,57.1,49.2,44.7,93,88,71,30.06,29.89,8,0,8,0.82
2013-5-7,64.6,56.4,51.1,62.0,54.3,49.1,94,93,85,29.92,29.82,8,0,8,1.39
2013-5-8,62.2,55.3,50.7,58.0,52.8,48.7,94,91,81,29.95,29.88,2,0,2,0.10
2013-5-9,81.5,67.6,47.3,64.6,56.8,45.2,93,71,45,29.98,29.89,10,0,10,0.02
2013-5-10,85.6,67.5,49.1,65.9,57.3,46.3,91,73,47,29.99,29.83,8,0,8,0.14
2013-5-11,82.2,67.9,60.1,68.1,60.2,55.3,89,78,52,29.85,29.69,6,0,6,0.02
2013-5-12,68.7,60.2,44.8,55.7,42.8,31.3,86,55,32,30.00,29.73,10,1,10,0.00
2013-5-13,63.7,48.5,34.0,45.1,34.8,29.8,86,62,36,30.13,29.99,9,0,9,0.00
2013-5-14,66.7,43.8,29.7,45.8,35.1,25.5,86,74,47,30.17,29.95,3,0,3,0.00
2013-5-15,94.3,69.8,47.3,69.7,54.6,41.5,82,61,33,29.97,29.71,9,0,9,0.00
2013-5-16,88.2,74.5,64.9,67.1,58.7,51.9,82,59,44,29.92,29.76,10,0,10,0.02
2013-5-17,83.8,70.1,58.6,65.3,59.9,53.7,85,71,48,30.07,29.90,0,0,0,0.00
2013-5-18,64.8,62.2,59.4,60.0,58.0,55.5,88,86,84,30.16,30.06,0,0,0,0.41
2013-5-19,64.6,62.3,60.4,58.9,57.1,55.9,86,83,79,30.14,30.03,0,0,0,0.06
2013-5-20,82.0,69.4,62.8,70.8,60.4,52.0,79,73,68,30.06,29.94,0,0,0,0.08
2013-5-21,89.8,73.6,61.2,74.3,60.0,49.8,69,63,54,29.97,29.85,0,0,0,0.00
2013-5-22,89.4,74.9,65.1,74.2,55.6,36.2,65,52,34,29.92,29.80,6,0,6,0.10
2013-5-23,79.7,68.4,61.9,64.3,42.2,31.5,61,39,29,29.88,29.72,0,0,0,0.65
2013-5-24,65.1,59.5,50.7,50.5,38.0,29.0,64,46,30,30.12,29.73,12,2,12,0.00
2013-5-25,72.5,55.0,36.9,44.9,36.8,25.6,71,53,28,30.20,30.07,8,1,8,0.00
2013-5-26,77.5,59.3,41.2,51.3,42.0,28.0,69,55,32,30.19,30.07,8,0,8,0.00
2013-5-27,73.0,56.7,38.5,53.9,40.1,19.9,67,54,41,30.23,30.12,5,0,5,0.00
2013-5-28,87.6,67.2,48.4,71.6,48.1,23.1,63,51,30,30.15,30.02,6,0,6,0.00
2013-5-29,92.1,75.8,61.3,71.7,56.4,33.6,63,52,34,30.10,30.05,4,0,4,0.00
2013-5-30,92.1,77.5,60.1,73.8,59.9,34.4,63,55,36,30.16,30.08,4,0,4,0.00
2013-5-31,90.3,75.5,57.4,72.3,56.5,28.8,63,52,30,30.13,30.01,7,0,7,0.00
2013-6-1,91.2,76.9,61.5,73.8,58.2,30.3,63,53,29,30.02,29.90,8,0,8,0.00
2013-6-2,80.1,72.8,66.7,62.6,52.8,37.3,64,50,33,29.91,29.81,6,0,6,0.00
2013-6-3,84.9,73.1,64.8,69.5,48.5,30.7,64,44,23,29.93,29.79,6,0,6,0.10
2013-6-4,80.8,68.6,57.0,60.4,50.0,31.1,65,52,33,30.09,29.92,8,1,8,0.00
2013-6-5,80.4,67.8,54.7,65.8,49.5,27.8,64,53,33,30.12,29.99,6,0,6,0.02
2013-6-6,68.0,62.6,58.3,54.7,35.0,26.4,63,38,26,30.01,29.80,3,0,3,1.77
2013-6-7,71.1,66.6,63.7,36.1,30.0,27.8,30,26,23,29.80,29.58,8,0,8,0.18
2013-6-8,84.4,70.2,61.7,69.1,43.2,26.1,62,40,24,30.04,29.74,0,0,0,0.00
2013-6-9,84.6,69.9,58.8,68.7,38.7,23.6,60,34,22,30.13,30.01,0,0,0,1.20
2013-6-10,81.7,71.5,66.0,54.2,33.1,27.8,41,25,21,30.05,29.78,10,0,10,1.00
2013-6-11,85.1,73.1,62.2,69.7,47.3,27.1,64,43,22,29.87,29.79,9,0,9,0.00
2013-6-12,93.4,76.5,61.3,77.0,50.7,25.0,62,42,22,29.88,29.77,0,0,0,0.00
2013-6-13,90.7,73.5,67.8,74.9,46.3,28.6,66,41,21,29.79,29.51,7,1,7,0.00
2013-6-14,80.8,70.2,57.9,63.1,55.5,34.7,66,60,42,29.97,29.62,11,2,11,0.00
2013-6-15,84.7,68.5,51.4,65.9,46.7,21.2,64,47,27,30.06,29.95,5,0,5,0.00
2013-6-16,88.5,72.1,57.4,72.5,47.7,23.6,62,44,24,30.00,29.89,5,0,5,0.00
2013-6-17,89.1,73.2,63.5,73.9,47.2,29.9,63,42,24,29.96,29.85,8,0,8,1.24
2013-6-18,77.0,67.4,60.1,58.7,32.9,25.6,54,29,22,29.92,29.77,8,0,8,0.43
2013-6-19,78.4,67.0,56.8,64.0,37.5,22.5,62,36,22,30.11,29.86,7,0,7,0.00
2013-6-20,80.8,70.4,64.6,65.9,41.8,26.6,62,38,24,30.22,30.10,0,0,0,0.00
2013-6-21,84.9,71.0,55.9,68.2,51.9,24.9,64,52,28,30.25,30.16,7,0,7,0.00
2013-6-22,87.4,72.1,57.6,72.0,46.6,23.6,61,42,23,30.22,30.09,0,0,0,0.00
2013-6-23,87.1,74.5,68.0,71.7,43.2,28.6,61,35,21,30.15,30.05,2,0,2,0.00
2013-6-24,91.6,76.1,66.0,75.7,46.2,27.7,62,37,20,30.12,30.01,0,0,0,0.00
2013-6-25,92.8,78.8,68.2,76.1,49.3,28.6,61,38,20,30.04,29.89,0,0,0,0.00
2013-6-26,94.6,75.7,66.7,78.3,44.2,27.4,62,35,21,29.91,29.80,10,0,10,0.00
2013-6-27,86.4,73.5,64.9,71.2,44.6,27.0,63,38,22,29.84,29.63,8,0,8,0.00
2013-6-28,92.5,79.6,67.8,77.1,61.2,37.5,68,54,33,29.66,29.46,13,1,13,0.00
2013-6-29,88.7,74.5,59.0,72.5,56.3,27.9,66,54,28,29.69,29.52,6,0,6,0.00
2013-6-30,87.3,72.7,63.1,72.2,45.7,27.3,63,40,22,29.82,29.66,5,0,5,0.02
2013-7-1,85.6,74.2,67.3,70.9,46.2,30.3,63,39,23,29.93,29.80,6,0,6,0.00
2013-7-2,79.3,73.1,69.6,63.9,43.6,32.5,60,36,25,30.12,29.93,8,0,8,0.00
2013-7-3,85.3,73.9,70.3,68.7,38.3,32.5,60,28,22,30.19,30.10,0,0,0,1.41
2013-7-4,89.4,76.9,71.2,75.1,46.0,33.0,65,35,23,30.22,30.13,6,0,6,0.18
2013-7-5,89.4,77.6,70.7,75.8,49.8,32.6,66,40,24,30.20,30.10,6,0,6,0.00
2013-7-6,90.5,78.2,67.8,76.3,51.1,30.3,65,42,21,30.17,30.05,6,0,6,0.06
2013-7-7,87.4,75.3,69.1,71.8,42.6,30.0,60,33,21,30.10,29.99,6,0,6,0.43
2013-7-8,87.1,75.0,66.2,71.6,44.2,28.8,61,36,20,30.10,30.04,0,0,0,0.04
2013-7-9,86.9,75.2,67.3,66.3,38.7,27.9,51,28,18,30.09,29.99,0,0,0,0.00
2013-7-10,86.4,76.0,72.3,56.3,32.8,28.1,37,21,17,30.01,29.87,0,0,0,0.65
2013-7-11,86.4,75.1,70.2,67.0,35.9,28.1,56,25,16,29.90,29.84,0,0,0,1.02
2013-7-12,72.5,68.9,67.1,34.0,26.9,21.6,25,21,16,30.02,29.86,8,0,8,0.08
2013-7-13,81.9,73.5,67.3,54.0,31.4,20.9,39,22,14,30.20,30.01,4,0,4,0.08
2013-7-14,88.7,77.9,70.3,66.6,38.2,18.9,49,26,10,30.30,30.20,7,0,7,0.00
2013-7-15,94.6,80.2,68.4,74.1,42.1,19.9,53,29,10,30.28,30.18,4,0,4,0.00
2013-7-16,93.6,81.1,70.3,69.8,40.7,20.3,48,26,10,30.23,30.14,8,0,8,0.00
2013-7-17,91.0,79.7,73.9,60.2,29.3,18.1,36,17,10,30.20,30.09,7,0,7,0.16
2013-7-18,94.5,81.4,72.0,69.7,38.9,19.0,48,24,10,30.13,30.00,4,0,4,0.00
2013-7-19,92.8,79.5,72.3,60.8,28.9,16.8,36,17,10,30.02,29.88,6,0,6,0.47
2013-7-20,94.1,79.1,70.5,67.9,31.6,15.5,45,19,10,29.91,29.83,12,0,12,0.59
2013-7-21,91.4,76.6,70.3,68.9,29.8,15.3,48,20,10,29.94,29.86,4,0,4,0.37
2013-7-22,88.5,77.2,72.3,55.4,29.9,17.3,33,19,10,29.92,29.74,7,0,7,0.04
2013-7-23,92.5,79.3,71.2,71.0,39.6,13.1,51,27,10,29.76,29.64,7,0,7,0.00
2013-7-24,86.7,74.3,68.2,60.7,29.9,12.9,42,21,10,29.89,29.67,6,0,6,1.30
2013-7-25,82.4,71.2,64.6,60.0,31.2,7.8,48,25,10,30.02,29.86,7,0,7,0.00
2013-7-26,84.2,71.2,60.4,61.8,33.3,11.7,49,27,11,30.07,29.98,0,0,0,0.00
2013-7-27,77.2,71.3,65.5,29.6,21.5,14.9,21,16,10,30.02,29.89,0,0,0,0.04
2013-7-28,86.5,75.4,69.8,59.5,30.5,13.4,41,21,10,29.96,29.85,0,0,0,0.00
2013-7-29,83.8,71.4,61.0,63.8,34.4,7.6,52,30,10,30.14,29.95,6,0,6,0.02
2013-7-30,84.2,69.7,56.5,64.0,32.6,9.2,52,29,10,30.20,30.10,4,0,4,0.00
2013-7-31,78.6,68.1,63.3,27.8,21.0,11.9,21,17,10,30.12,29.97,3,0,3,0.10
2013-8-1,87.1,73.7,68.7,53.5,28.6,13.9,37,20,10,29.98,29.79,5,0,5,0.12
2013-8-2,88.7,75.1,64.8,67.2,38.2,10.9,51,29,10,29.95,29.85,0,0,0,0.00
2013-8-3,84.7,69.8,63.3,57.1,22.6,12.6,37,18,10,29.95,29.89,0,0,0,0.00
2013-8-4,84.6,71.6,59.4,62.8,37.1,7.2,52,32,10,30.02,29.89,9,1,9,0.00
2013-8-5,82.0,67.4,54.5,61.8,29.9,9.1,51,28,10,30.07,29.97,4,0,6,0.00
2013-8-6,79.0,70.7,64.8,40.3,22.7,12.3,26,17,10,30.00,29.94,7,0,7,0.10
2013-8-7,86.4,74.6,70.9,41.7,26.6,14.8,23,18,10,30.02,29.97,6,0,6,0.02
2013-8-8,81.0,75.7,72.1,31.6,26.9,17.1,21,17,10,30.00,29.94,3,0,3,0.14
2013-8-9,93.4,80.1,73.4,66.3,36.1,15.8,43,22,10,29.95,29.87,5,0,5,0.00
2013-8-10,86.2,76.4,72.1,34.9,25.5,15.5,21,16,10,30.07,29.94,0,0,0,0.41
2013-8-11,80.4,74.2,69.6,30.9,25.8,16.1,22,17,10,30.09,29.98,0,0,0,0.31
2013-8-12,91.4,78.2,70.2,68.1,36.6,16.8,49,24,10,30.00,29.88,0,0,0,0.00
2013-8-13,87.1,77.0,71.8,61.0,29.4,15.6,44,19,10,29.89,29.72,0,0,0,0.08
2013-8-14,77.5,68.2,54.5,58.4,37.3,6.4,56,37,12,30.08,29.79,0,0,0,0.00
2013-8-15,78.3,62.5,49.6,59.2,29.2,6.3,54,32,13,30.14,30.05,0,0,0,0.00
2013-8-16,78.6,63.7,51.1,59.9,29.6,7.7,54,31,10,30.17,30.08,0,0,0,0.00
2013-8-17,76.1,64.6,54.0,56.0,28.0,9.8,53,28,10,30.20,30.14,0,0,0,0.02
2013-8-18,70.2,65.8,63.3,25.0,21.1,9.9,22,19,10,30.20,30.13,0,0,0,1.55
2013-8-19,75.0,68.5,64.9,28.5,23.0,13.5,22,19,10,30.16,30.03,0,0,0,0.02
2013-8-20,85.6,73.9,65.1,57.1,30.7,14.9,39,21,10,30.14,30.05,0,0,0,0.00
2013-8-21,88.2,74.5,66.9,60.3,29.3,14.4,40,20,10,30.16,30.05,0,0,0,0.00
2013-8-22,88.3,75.2,66.7,67.8,33.8,14.9,52,25,10,30.07,29.93,0,0,0,0.02
2013-8-23,79.5,68.4,63.1,31.6,25.8,16.1,22,20,11,30.09,29.92,4,0,4,0.67
2013-8-24,82.8,67.8,56.1,62.8,33.0,9.2,52,30,10,30.28,30.09,6,0,6,0.00
2013-8-25,84.0,67.3,55.0,64.5,30.7,9.9,52,28,10,30.36,30.23,5,0,5,0.00
2013-8-26,87.1,70.3,56.5,66.7,33.7,10.9,52,29,10,30.27,30.00,6,0,6,0.00
2013-8-27,91.8,74.4,63.1,69.3,31.3,13.6,49,23,10,30.02,29.89,3,0,3,0.00
2013-8-28,77.4,73.7,70.3,32.2,26.7,19.4,21,18,15,29.94,29.77,4,0,4,0.16
2013-8-29,85.1,76.0,69.1,58.5,31.8,14.1,41,21,10,30.00,29.79,8,1,8,0.00
2013-8-30,88.5,75.5,66.9,65.7,34.4,15.1,48,25,10,30.00,29.87,0,0,0,0.00
2013-8-31,90.0,75.6,68.9,62.9,30.1,15.3,42,20,10,29.90,29.78,6,0,6,0.06
2013-9-1,91.4,78.1,72.7,68.7,33.1,17.7,49,22,10,29.85,29.75,6,0,6,1.00
2013-9-2,91.8,78.9,70.5,70.5,41.1,16.4,51,28,11,29.81,29.72,0,0,0,0.00
2013-9-3,88.9,75.7,64.8,69.0,37.8,13.0,53,29,10,29.93,29.73,7,0,7,0.00
2013-9-4,84.0,69.2,57.9,65.1,32.8,10.0,54,29,10,30.06,29.93,5,0,5,0.00
2013-9-5,88.0,69.8,55.9,68.2,35.3,11.3,54,31,10,30.09,29.97,0,0,0,0.00
2013-9-6,79.5,65.2,55.2,61.2,32.3,6.1,54,33,12,30.20,30.08,8,1,8,0.00
2013-9-7,82.0,66.2,52.9,63.0,29.9,10.9,53,28,10,30.11,29.91,4,0,4,0.00
2013-9-8,90.3,72.4,59.4,70.6,33.6,13.5,53,27,10,29.98,29.85,3,0,3,0.00
2013-9-9,79.3,70.6,64.8,60.4,35.8,13.4,53,32,13,30.15,29.98,7,0,7,0.00
2013-9-10,92.7,76.6,63.9,71.8,38.3,16.7,51,28,10,30.15,30.07,0,0,0,0.00
2013-9-11,94.3,78.1,67.8,72.9,37.8,15.9,52,26,10,30.12,29.99,0,0,0,0.00
2013-9-12,91.9,76.6,68.5,71.2,36.6,15.9,53,26,10,29.99,29.74,0,0,0,0.00
2013-9-13,81.0,69.8,60.4,61.4,40.0,10.4,58,38,12,29.91,29.71,10,1,10,0.00
2013-9-14,72.5,59.6,48.0,54.8,39.5,7.3,60,49,19,30.12,29.90,8,1,8,0.00
2013-9-15,79.7,60.0,43.0,62.1,27.9,5.5,56,32,14,30.18,30.05,6,0,6,0.00
2013-9-16,72.5,61.6,52.0,52.3,23.5,9.4,52,25,11,30.19,30.02,8,0,8,0.00
2013-9-17,70.7,57.3,45.0,54.7,25.8,6.9,58,32,15,30.36,30.19,8,1,8,0.00
2013-9-18,72.1,54.8,39.6,55.5,23.3,3.5,57,32,14,30.29,30.13,7,0,7,0.00
2013-9-19,79.5,63.2,52.9,61.2,27.1,8.8,55,28,13,30.16,30.04,3,0,3,0.00
2013-9-20,76.5,65.1,58.3,37.7,19.9,12.0,25,18,12,30.05,29.91,2,0,2,0.00
2013-9-21,66.0,65.3,64.2,23.8,22.7,21.9,21,20,19,29.92,29.87,0,0,0,0.00
2013-9-27,59.6,58.5,57.8,57.9,57.3,56.8,97,96,94,30.32,30.27,0,0,0,0.00
2013-9-28,66.0,59.9,54.7,58.1,56.1,53.3,99,88,66,30.39,30.30,1,0,2,0.00
2013-9-29,73.3,59.9,48.0,58.0,53.3,47.5,99,82,45,30.31,30.15,2,0,3,0.00
2013-9-30,77.7,59.3,44.1,61.9,53.7,43.8,99,84,50,30.19,30.07,1,0,2,0.00
2013-10-1,83.5,65.2,53.9,69.1,59.4,53.3,99,84,48,30.19,30.09,1,0,3,0.00
2013-10-2,85.4,65.3,50.7,67.4,58.6,50.4,99,83,46,30.20,30.10,1,0,3,0.00
2013-10-3,81.5,65.6,53.6,69.9,61.2,53.3,99,88,56,30.22,30.13,1,0,3,0.00
2013-10-4,87.3,68.0,55.9,70.0,62.4,55.6,100,85,44,30.20,30.11,1,0,4,0.00
2013-10-5,87.6,69.6,56.7,70.9,63.3,56.4,100,84,45,30.20,30.08,1,0,3,0.00
2013-10-6,86.4,69.7,56.6,70.5,63.4,56.3,100,83,47,30.11,29.98,1,0,4,0.00
2013-10-7,72.0,67.1,56.1,69.4,61.8,45.7,98,84,58,30.14,29.84,1,0,4,1.15
2013-10-8,65.5,56.2,46.6,52.8,46.9,42.7,98,73,48,30.37,30.14,3,1,8,0.00
2013-10-9,60.4,53.4,47.6,53.0,49.4,46.4,99,87,71,30.40,30.30,2,0,6,0.08
2013-10-10,60.9,55.7,51.0,57.2,53.5,49.4,96,92,83,30.30,30.07,3,2,11,0.48
2013-10-11,67.1,60.7,55.8,59.6,56.2,54.0,95,85,74,30.09,30.03,2,1,6,0.02
2013-10-12,64.3,61.4,59.1,63.4,60.4,57.5,99,96,90,30.24,30.06,2,0,5,0.24
2013-10-13,62.2,59.7,58.3,60.8,59.1,57.8,99,98,93,30.39,30.23,2,0,4,0.39
2013-10-14,68.4,59.3,52.0,61.4,57.5,51.5,99,94,75,30.41,30.30,2,0,4,0.03
2013-10-15,70.9,57.7,48.8,59.7,53.4,48.8,100,88,47,30.33,30.18,2,0,6,0.00
2013-10-16,73.1,61.8,55.5,64.2,58.4,55.0,99,90,66,30.20,30.01,1,0,3,0.00
2013-10-17,72.0,62.3,55.7,66.7,60.2,53.5,100,93,76,30.01,29.84,1,0,4,0.02
2013-10-18,67.3,56.0,43.7,52.8,45.9,38.8,99,71,40,30.13,29.94,2,0,7,0.00
2013-10-19,61.5,51.4,41.7,55.6,48.5,41.4,100,91,69,30.10,29.90,1,0,4,0.00
2013-10-20,63.6,49.8,36.2,47.3,38.9,33.5,98,70,35,30.22,29.99,3,0,7,0.00
2013-10-21,67.8,47.9,30.7,48.1,41.0,30.5,99,81,43,30.27,30.06,2,0,7,0.00
2013-10-22,70.3,56.3,45.1,53.2,46.7,44.3,98,73,42,30.06,29.89,4,0,6,0.00
2013-10-23,58.5,49.1,42.6,48.5,40.9,31.2,96,75,47,30.06,29.77,5,1,13,0.28
2013-10-24,53.0,44.3,35.6,36.2,30.6,24.4,85,60,40,30.28,30.05,4,1,14,0.00
2013-10-25,54.2,41.5,29.0,29.8,26.3,21.9,92,58,30,30.45,30.26,6,2,14,0.00
2013-10-26,57.9,41.8,23.7,33.5,27.7,22.7,97,63,28,30.44,30.08,5,1,8,0.00
2013-10-27,65.2,47.2,33.0,41.9,36.4,31.6,96,70,35,30.24,30.09,2,0,8,0.00
2013-10-28,68.8,47.3,31.7,47.7,39.7,31.1,98,79,39,30.38,30.24,2,0,4,0.00
2013-10-29,68.7,54.5,44.3,48.4,45.8,43.2,96,75,45,30.47,30.35,3,0,5,0.00
2013-10-30,71.6,57.6,49.1,58.3,53.2,46.8,98,86,61,30.42,30.21,2,0,6,0.03
2013-10-31,69.9,61.3,51.6,59.6,56.0,51.3,99,84,64,30.27,29.86,6,1,11,0.00
2013-11-1,79.1,69.0,55.1,63.1,57.6,48.2,97,70,35,29.87,29.67,7,3,16,0.03
2013-11-2,68.6,58.2,46.1,54.9,41.3,32.5,98,57,29,30.01,29.73,5,2,11,0.00
2013-11-3,59.3,49.1,30.8,37.6,32.2,24.1,93,55,27,30.51,30.01,6,2,15,0.00
2013-11-4,50.7,38.8,28.5,30.1,27.2,24.0,96,65,42,30.73,30.51,5,1,11,0.00
2013-11-5,52.6,42.5,29.4,44.0,34.3,28.1,96,75,49,30.73,30.58,1,0,3,0.00
2013-11-6,69.5,54.9,45.9,51.6,47.6,43.9,96,79,50,30.59,30.17,4,1,8,0.00
2013-11-7,65.1,56.9,43.6,55.8,44.0,24.2,86,64,36,30.21,29.98,7,3,14,0.00
2013-11-8,53.3,41.5,27.8,31.1,24.3,19.2,89,54,28,30.44,30.21,7,2,12,0.00
2013-11-9,58.2,41.5,23.6,32.0,26.4,22.3,95,61,30,30.48,30.18,7,2,11,0.00
2013-11-10,67.0,51.1,38.3,36.7,27.4,21.1,70,44,18,30.36,30.08,7,3,18,0.00
2013-11-11,62.5,47.7,29.4,30.8,26.0,20.6,88,47,21,30.42,30.13,6,2,9,0.00
2013-11-12,55.2,41.7,31.7,34.7,22.0,12.2,58,46,38,30.53,30.05,12,5,18,0.00
2013-11-13,46.7,33.8,22.4,19.3,15.7,11.3,83,49,26,30.63,30.52,6,2,13,0.00
2013-11-14,64.6,39.7,18.9,24.8,17.6,13.2,91,51,14,30.53,30.35,5,1,7,0.00
2013-11-15,65.8,45.5,26.1,46.6,26.7,19.4,95,55,17,30.39,30.27,5,1,7,0.16
2013-11-16,53.5,49.2,45.8,50.9,48.3,45.0,99,97,90,30.40,30.32,2,0,4,0.10
2013-11-17,60.5,55.6,50.3,59.4,54.6,50.0,100,97,89,30.33,29.87,8,2,10,0.12
2013-11-18,67.4,60.6,49.6,60.8,34.5,19.2,98,41,18,30.05,29.82,6,3,16,0.08
2013-11-19,49.9,44.5,37.0,27.4,24.9,22.4,61,46,34,30.47,30.05,9,4,20,0.00
2013-11-20,47.1,37.1,30.2,27.7,24.6,21.4,86,62,37,30.65,30.47,6,1,12,0.00
2013-11-21,49.9,42.7,32.7,41.2,35.2,26.6,85,75,64,30.67,30.49,2,0,3,0.00
2013-11-22,67.2,58.7,46.2,55.8,50.1,40.8,84,73,61,30.50,30.10,5,2,8,0.00
2013-11-23,61.1,49.0,34.0,53.5,29.0,9.6,84,49,18,30.32,30.11,11,4,22,0.00
2013-11-24,34.0,27.2,21.9,13.7,3.4,-0.6,53,36,26,30.66,30.32,10,4,21,0.00
2013-11-25,38.0,27.7,15.3,14.7,9.8,5.3,82,50,29,30.69,30.46,6,2,9,0.00
2013-11-26,38.9,34.3,31.3,38.4,27.7,10.1,98,81,33,30.47,29.71,4,1,8,2.48
2013-11-27,43.1,37.3,27.7,40.4,29.3,10.6,98,75,45,30.23,29.60,12,5,26,0.20
2013-11-28,41.7,29.7,19.5,22.1,16.5,10.7,91,60,35,30.57,30.22,4,1,9,0.00
2013-11-29,44.7,30.5,18.1,26.8,21.1,16.3,94,71,40,30.83,30.56,5,1,10,0.00
2013-11-30,42.3,28.4,17.5,25.1,20.7,15.7,94,75,45,30.83,30.49,2,0,5,0.00
2013-12-1,55.5,35.4,18.5,33.3,25.1,17.0,95,71,32,30.49,30.13,2,0,4,0.00
2013-12-2,53.3,43.4,38.1,38.6,35.1,31.9,87,73,51,30.13,29.95,3,0,5,0.00
2013-12-3,58.3,44.4,35.7,39.7,36.8,33.9,94,77,48,30.10,29.97,2,0,4,0.00
2013-12-4,61.9,50.3,36.6,53.7,45.0,35.3,97,83,64,30.17,30.07,3,1,6,0.00
2013-12-5,66.4,60.4,53.1,61.8,56.6,50.9,94,87,76,30.15,30.02,7,2,13,0.00
2013-12-6,66.8,55.2,41.4,64.6,53.6,39.8,98,95,80,30.21,29.97,8,3,15,1.29
2013-12-7,43.5,39.5,29.4,40.1,33.6,25.9,95,80,67,30.62,30.19,6,2,13,0.10
2013-12-8,32.5,29.8,27.0,31.2,26.7,22.9,97,88,75,30.66,30.41,5,1,9,0.00
2013-12-9,45.2,35.0,30.4,42.4,34.0,29.9,99,97,88,30.42,30.12,3,0,5,0.17
2013-12-10,43.8,34.6,30.6,40.0,27.8,14.4,99,79,44,30.36,30.10,10,1,25,0.33
2013-12-11,46.4,34.0,22.8,24.1,18.9,12.1,82,56,34,30.52,30.35,7,1,10,0.00
2013-12-12,39.2,32.4,24.4,20.2,10.0,-1.9,59,41,20,30.52,30.36,7,2,10,0.00
2013-12-13,50.2,36.4,24.5,25.4,14.7,8.0,78,43,25,30.42,30.33,6,1,13,0.00
2013-12-14,35.1,33.2,30.2,33.9,30.8,22.6,98,91,72,30.40,29.86,3,1,11,0.47
2013-12-15,48.1,39.7,33.5,37.5,29.6,23.0,99,69,45,30.09,29.75,6,2,12,0.03
2013-12-16,45.8,38.9,33.8,31.4,27.9,25.3,79,65,49,30.25,30.06,5,1,10,0.00
2013-12-17,56.0,38.1,24.7,38.3,31.2,23.5,96,78,45,30.23,30.01,5,1,12,0.03
2013-12-18,45.3,36.1,25.4,28.7,20.7,17.5,84,55,34,30.33,30.11,7,2,12,0.00
2013-12-19,67.0,45.0,24.8,29.1,24.9,20.9,89,52,20,30.31,30.21,4,1,9,0.00
2013-12-20,61.4,52.7,41.2,39.0,31.0,25.9,58,44,31,30.24,30.12,8,3,12,0.00
2013-12-21,68.6,60.3,50.6,59.8,49.4,38.7,86,68,53,30.14,30.00,9,3,13,0.00
2013-12-22,71.0,64.2,59.2,64.1,59.5,52.4,95,85,54,30.09,29.94,9,4,14,0.29
2013-12-23,63.1,55.9,38.1,61.5,49.0,26.9,98,79,53,30.30,30.00,8,2,15,1.00
2013-12-24,41.1,33.6,23.4,27.7,17.9,3.6,85,54,33,30.59,30.29,10,2,19,0.00
2013-12-25,34.6,25.3,15.0,15.6,11.1,5.9,84,56,37,30.68,30.49,8,1,12,0.00
2013-12-26,50.0,33.1,18.8,24.0,18.6,13.4,85,58,29,30.50,30.33,6,1,14,0.00
2013-12-27,54.1,33.2,18.8,27.7,20.2,17.0,93,65,24,30.57,30.43,3,0,6,0.00
2013-12-28,60.7,38.0,19.6,30.3,23.8,17.6,94,63,23,30.49,30.25,3,0,6,0.00
2013-12-29,54.7,46.0,39.8,49.2,40.3,26.6,98,82,45,30.25,29.68,7,1,16,1.64
2013-12-30,48.9,44.4,35.5,37.8,32.1,26.6,77,62,49,30.26,29.93,6,2,16,0.00
2013-12-31,46.4,36.0,25.8,30.3,22.0,12.4,96,61,29,30.44,30.23,9,2,18,0.00
2014-1-1,51.9,35.3,23.0,26.2,22.3,18.3,90,62,34,30.50,30.21,5,1,10,0.00
2014-1-2,38.8,31.5,25.9,32.6,27.7,23.5,96,86,61,30.21,29.72,4,1,7,0.14